sensor_id;sensor_type;location;lat;lon;timestamp;temperature;humidity
78733;DHT22;68056;52.530;5.454;2023-07-13T00:00:29;17.60;67.20
78733;DHT22;68056;52.530;5.454;2023-07-13T00:02:55;17.60;67.20
78733;DHT22;68056;52.530;5.454;2023-07-13T00:05:22;17.60;67.30
78733;DHT22;68056;52.530;5.454;2023-07-13T00:07:52;17.60;67.50
78733;DHT22;68056;52.530;5.454;2023-07-13T00:10:18;17.60;67.50
78733;DHT22;68056;52.530;5.454;2023-07-13T00:12:44;17.60;67.70
78733;DHT22;68056;52.530;5.454;2023-07-13T00:15:19;17.60;67.70
78733;DHT22;68056;52.530;5.454;2023-07-13T00:17:57;17.60;67.80
78733;DHT22;68056;52.530;5.454;2023-07-13T00:20:24;17.60;67.80
78733;DHT22;68056;52.530;5.454;2023-07-13T00:22:51;17.60;67.80
78733;DHT22;68056;52.530;5.454;2023-07-13T00:25:22;17.60;68.00
78733;DHT22;68056;52.530;5.454;2023-07-13T00:27:51;17.60;68.00
78733;DHT22;68056;52.530;5.454;2023-07-13T00:30:17;17.60;68.10
78733;DHT22;68056;52.530;5.454;2023-07-13T00:32:43;17.60;68.20
78733;DHT22;68056;52.530;5.454;2023-07-13T00:35:09;17.70;68.20
78733;DHT22;68056;52.530;5.454;2023-07-13T00:37:34;17.70;68.40
78733;DHT22;68056;52.530;5.454;2023-07-13T00:40:04;17.70;68.40
78733;DHT22;68056;52.530;5.454;2023-07-13T00:42:31;17.70;68.50
78733;DHT22;68056;52.530;5.454;2023-07-13T00:47:36;17.70;68.70
78733;DHT22;68056;52.530;5.454;2023-07-13T00:50:02;17.70;68.60
78733;DHT22;68056;52.530;5.454;2023-07-13T00:52:29;17.70;68.70
78733;DHT22;68056;52.530;5.454;2023-07-13T00:54:56;17.80;68.70
78733;DHT22;68056;52.530;5.454;2023-07-13T00:57:22;17.80;68.70
78733;DHT22;68056;52.530;5.454;2023-07-13T00:59:53;17.80;68.70
78733;DHT22;68056;52.530;5.454;2023-07-13T01:02:20;17.80;68.80
78733;DHT22;68056;52.530;5.454;2023-07-13T01:04:46;17.80;68.70
78733;DHT22;68056;52.530;5.454;2023-07-13T01:07:12;17.80;68.70
78733;DHT22;68056;52.530;5.454;2023-07-13T01:09:38;17.80;68.60
78733;DHT22;68056;52.530;5.454;2023-07-13T01:12:04;17.80;68.70
78733;DHT22;68056;52.530;5.454;2023-07-13T01:14:30;17.80;68.70
78733;DHT22;68056;52.530;5.454;2023-07-13T01:16:56;17.80;68.70
78733;DHT22;68056;52.530;5.454;2023-07-13T01:19:44;17.80;68.80
78733;DHT22;68056;52.530;5.454;2023-07-13T01:22:13;17.80;69.00
78733;DHT22;68056;52.530;5.454;2023-07-13T01:24:41;17.80;69.00
78733;DHT22;68056;52.530;5.454;2023-07-13T01:27:09;17.80;69.00
78733;DHT22;68056;52.530;5.454;2023-07-13T01:29:37;17.80;69.00
78733;DHT22;68056;52.530;5.454;2023-07-13T01:32:13;17.80;69.10
78733;DHT22;68056;52.530;5.454;2023-07-13T01:34:39;17.80;69.10
78733;DHT22;68056;52.530;5.454;2023-07-13T01:37:08;17.80;69.10
78733;DHT22;68056;52.530;5.454;2023-07-13T01:39:34;17.80;69.20
78733;DHT22;68056;52.530;5.454;2023-07-13T01:41:59;17.80;69.10
78733;DHT22;68056;52.530;5.454;2023-07-13T01:44:25;17.80;69.20
78733;DHT22;68056;52.530;5.454;2023-07-13T01:46:51;17.80;69.20
78733;DHT22;68056;52.530;5.454;2023-07-13T01:49:17;17.80;69.20
78733;DHT22;68056;52.530;5.454;2023-07-13T01:51:42;17.80;69.30
78733;DHT22;68056;52.530;5.454;2023-07-13T01:54:08;17.80;69.40
78733;DHT22;68056;52.530;5.454;2023-07-13T01:56:34;17.80;69.50
78733;DHT22;68056;52.530;5.454;2023-07-13T01:58:59;17.80;69.50
78733;DHT22;68056;52.530;5.454;2023-07-13T02:01:25;17.80;69.60
78733;DHT22;68056;52.530;5.454;2023-07-13T02:03:51;17.80;69.70
78733;DHT22;68056;52.530;5.454;2023-07-13T02:06:16;17.70;69.70
78733;DHT22;68056;52.530;5.454;2023-07-13T02:08:42;17.70;69.60
78733;DHT22;68056;52.530;5.454;2023-07-13T02:11:08;17.60;69.80
78733;DHT22;68056;52.530;5.454;2023-07-13T02:13:34;17.60;69.90
78733;DHT22;68056;52.530;5.454;2023-07-13T02:16:00;17.60;70.00
78733;DHT22;68056;52.530;5.454;2023-07-13T02:18:26;17.60;70.10
78733;DHT22;68056;52.530;5.454;2023-07-13T02:20:53;17.60;70.20
78733;DHT22;68056;52.530;5.454;2023-07-13T02:23:18;17.60;70.30
78733;DHT22;68056;52.530;5.454;2023-07-13T02:25:45;17.60;70.30
78733;DHT22;68056;52.530;5.454;2023-07-13T02:28:10;17.60;70.30
78733;DHT22;68056;52.530;5.454;2023-07-13T02:30:36;17.60;70.30
78733;DHT22;68056;52.530;5.454;2023-07-13T02:33:02;17.60;70.40
78733;DHT22;68056;52.530;5.454;2023-07-13T02:35:28;17.50;70.30
78733;DHT22;68056;52.530;5.454;2023-07-13T02:37:54;17.50;70.50
78733;DHT22;68056;52.530;5.454;2023-07-13T02:40:19;17.50;70.50
78733;DHT22;68056;52.530;5.454;2023-07-13T02:42:45;17.50;70.50
78733;DHT22;68056;52.530;5.454;2023-07-13T02:45:11;17.50;70.60
78733;DHT22;68056;52.530;5.454;2023-07-13T02:47:40;17.50;70.50
78733;DHT22;68056;52.530;5.454;2023-07-13T02:50:07;17.50;70.50
78733;DHT22;68056;52.530;5.454;2023-07-13T02:52:33;17.50;70.60
78733;DHT22;68056;52.530;5.454;2023-07-13T02:54:59;17.50;70.50
78733;DHT22;68056;52.530;5.454;2023-07-13T02:57:24;17.50;70.40
78733;DHT22;68056;52.530;5.454;2023-07-13T02:59:50;17.50;70.20
78733;DHT22;68056;52.530;5.454;2023-07-13T03:02:16;17.50;69.90
78733;DHT22;68056;52.530;5.454;2023-07-13T03:04:42;17.60;69.60
78733;DHT22;68056;52.530;5.454;2023-07-13T03:07:08;17.60;69.50
78733;DHT22;68056;52.530;5.454;2023-07-13T03:09:34;17.60;69.40
78733;DHT22;68056;52.530;5.454;2023-07-13T03:12:00;17.70;69.30
78733;DHT22;68056;52.530;5.454;2023-07-13T03:14:26;17.70;69.20
78733;DHT22;68056;52.530;5.454;2023-07-13T03:16:52;17.70;69.10
78733;DHT22;68056;52.530;5.454;2023-07-13T03:19:18;17.80;69.00
78733;DHT22;68056;52.530;5.454;2023-07-13T03:21:44;17.80;68.90
78733;DHT22;68056;52.530;5.454;2023-07-13T03:24:10;17.80;68.90
78733;DHT22;68056;52.530;5.454;2023-07-13T03:26:36;17.80;68.80
78733;DHT22;68056;52.530;5.454;2023-07-13T03:29:02;17.80;68.70
78733;DHT22;68056;52.530;5.454;2023-07-13T03:31:29;17.80;68.80
78733;DHT22;68056;52.530;5.454;2023-07-13T03:33:56;17.80;68.70
78733;DHT22;68056;52.530;5.454;2023-07-13T03:36:25;17.80;68.70
78733;DHT22;68056;52.530;5.454;2023-07-13T03:38:55;17.80;68.60
78733;DHT22;68056;52.530;5.454;2023-07-13T03:41:23;17.80;68.50
78733;DHT22;68056;52.530;5.454;2023-07-13T03:43:49;17.80;68.40
78733;DHT22;68056;52.530;5.454;2023-07-13T03:46:15;17.80;68.50
78733;DHT22;68056;52.530;5.454;2023-07-13T03:48:43;17.80;68.50
78733;DHT22;68056;52.530;5.454;2023-07-13T03:51:10;17.80;68.60
78733;DHT22;68056;52.530;5.454;2023-07-13T03:53:40;17.80;68.70
78733;DHT22;68056;52.530;5.454;2023-07-13T03:56:07;17.80;68.70
78733;DHT22;68056;52.530;5.454;2023-07-13T03:58:35;17.80;68.60
78733;DHT22;68056;52.530;5.454;2023-07-13T04:01:03;17.80;68.80
78733;DHT22;68056;52.530;5.454;2023-07-13T04:03:31;17.80;68.80
78733;DHT22;68056;52.530;5.454;2023-07-13T04:05:59;17.90;68.80
78733;DHT22;68056;52.530;5.454;2023-07-13T04:08:43;17.90;69.00
78733;DHT22;68056;52.530;5.454;2023-07-13T04:11:09;17.90;69.10
78733;DHT22;68056;52.530;5.454;2023-07-13T04:13:36;18.00;69.10
78733;DHT22;68056;52.530;5.454;2023-07-13T04:16:02;17.80;69.20
78733;DHT22;68056;52.530;5.454;2023-07-13T04:18:27;17.80;69.20
78733;DHT22;68056;52.530;5.454;2023-07-13T04:20:53;17.80;69.20
78733;DHT22;68056;52.530;5.454;2023-07-13T04:23:19;17.70;69.30
78733;DHT22;68056;52.530;5.454;2023-07-13T04:25:48;17.70;69.20
78733;DHT22;68056;52.530;5.454;2023-07-13T04:28:15;17.60;69.30
78733;DHT22;68056;52.530;5.454;2023-07-13T04:30:43;17.60;69.20
78733;DHT22;68056;52.530;5.454;2023-07-13T04:33:08;17.50;69.30
78733;DHT22;68056;52.530;5.454;2023-07-13T04:35:34;17.50;69.20
78733;DHT22;68056;52.530;5.454;2023-07-13T04:38:00;17.50;69.20
78733;DHT22;68056;52.530;5.454;2023-07-13T04:40:27;17.50;69.10
78733;DHT22;68056;52.530;5.454;2023-07-13T04:42:52;17.50;69.20
78733;DHT22;68056;52.530;5.454;2023-07-13T04:45:18;17.50;69.20
78733;DHT22;68056;52.530;5.454;2023-07-13T04:47:47;17.40;69.20
78733;DHT22;68056;52.530;5.454;2023-07-13T04:50:13;17.40;69.30
78733;DHT22;68056;52.530;5.454;2023-07-13T04:52:46;17.40;69.20
78733;DHT22;68056;52.530;5.454;2023-07-13T04:55:12;17.50;69.30
78733;DHT22;68056;52.530;5.454;2023-07-13T04:57:37;17.50;69.20
78733;DHT22;68056;52.530;5.454;2023-07-13T05:00:04;17.50;69.10
78733;DHT22;68056;52.530;5.454;2023-07-13T05:02:30;17.50;69.10
78733;DHT22;68056;52.530;5.454;2023-07-13T05:04:57;17.60;69.00
78733;DHT22;68056;52.530;5.454;2023-07-13T05:07:23;17.60;69.00
78733;DHT22;68056;52.530;5.454;2023-07-13T05:09:48;17.60;69.00
78733;DHT22;68056;52.530;5.454;2023-07-13T05:12:14;17.60;69.20
78733;DHT22;68056;52.530;5.454;2023-07-13T05:14:40;17.70;69.10
78733;DHT22;68056;52.530;5.454;2023-07-13T05:17:05;17.80;69.10
78733;DHT22;68056;52.530;5.454;2023-07-13T05:19:31;17.80;69.00
78733;DHT22;68056;52.530;5.454;2023-07-13T05:21:57;17.90;69.00
78733;DHT22;68056;52.530;5.454;2023-07-13T05:24:23;18.00;69.00
78733;DHT22;68056;52.530;5.454;2023-07-13T05:26:49;18.00;68.90
78733;DHT22;68056;52.530;5.454;2023-07-13T05:29:14;18.00;68.80
78733;DHT22;68056;52.530;5.454;2023-07-13T05:31:40;18.10;68.80
78733;DHT22;68056;52.530;5.454;2023-07-13T05:34:05;18.20;68.70
78733;DHT22;68056;52.530;5.454;2023-07-13T05:36:31;18.20;68.60
78733;DHT22;68056;52.530;5.454;2023-07-13T05:38:57;18.20;68.70
78733;DHT22;68056;52.530;5.454;2023-07-13T05:41:22;18.30;68.70
78733;DHT22;68056;52.530;5.454;2023-07-13T05:43:48;18.20;68.70
78733;DHT22;68056;52.530;5.454;2023-07-13T05:46:14;18.20;68.80
78733;DHT22;68056;52.530;5.454;2023-07-13T05:48:39;18.20;69.00
78733;DHT22;68056;52.530;5.454;2023-07-13T05:51:05;18.10;69.10
78733;DHT22;68056;52.530;5.454;2023-07-13T05:53:31;18.10;69.20
78733;DHT22;68056;52.530;5.454;2023-07-13T05:55:56;18.10;69.40
78733;DHT22;68056;52.530;5.454;2023-07-13T05:58:22;18.00;69.50
78733;DHT22;68056;52.530;5.454;2023-07-13T06:00:48;18.00;69.50
78733;DHT22;68056;52.530;5.454;2023-07-13T06:03:15;18.10;69.60
78733;DHT22;68056;52.530;5.454;2023-07-13T06:05:41;18.10;69.60
78733;DHT22;68056;52.530;5.454;2023-07-13T06:08:07;18.10;69.70
78733;DHT22;68056;52.530;5.454;2023-07-13T06:10:37;18.10;69.80
78733;DHT22;68056;52.530;5.454;2023-07-13T06:13:02;18.10;69.80
78733;DHT22;68056;52.530;5.454;2023-07-13T06:15:28;18.20;69.70
78733;DHT22;68056;52.530;5.454;2023-07-13T06:17:54;18.20;69.80
78733;DHT22;68056;52.530;5.454;2023-07-13T06:20:19;18.20;69.70
78733;DHT22;68056;52.530;5.454;2023-07-13T06:22:45;18.20;69.90
78733;DHT22;68056;52.530;5.454;2023-07-13T06:25:11;18.20;69.90
78733;DHT22;68056;52.530;5.454;2023-07-13T06:27:37;18.20;70.00
78733;DHT22;68056;52.530;5.454;2023-07-13T06:30:02;18.20;70.00
78733;DHT22;68056;52.530;5.454;2023-07-13T06:32:28;18.20;70.10
78733;DHT22;68056;52.530;5.454;2023-07-13T06:34:54;18.30;70.10
78733;DHT22;68056;52.530;5.454;2023-07-13T06:37:19;18.30;70.20
78733;DHT22;68056;52.530;5.454;2023-07-13T06:39:45;18.30;70.20
78733;DHT22;68056;52.530;5.454;2023-07-13T06:42:11;18.40;70.10
78733;DHT22;68056;52.530;5.454;2023-07-13T06:44:36;18.40;70.20
78733;DHT22;68056;52.530;5.454;2023-07-13T06:47:02;18.50;70.20
78733;DHT22;68056;52.530;5.454;2023-07-13T06:49:28;18.60;70.10
78733;DHT22;68056;52.530;5.454;2023-07-13T06:51:54;18.70;70.10
78733;DHT22;68056;52.530;5.454;2023-07-13T06:54:19;18.80;70.00
78733;DHT22;68056;52.530;5.454;2023-07-13T06:56:45;18.80;70.00
78733;DHT22;68056;52.530;5.454;2023-07-13T06:59:11;18.90;69.90
78733;DHT22;68056;52.530;5.454;2023-07-13T07:01:36;19.00;69.80
78733;DHT22;68056;52.530;5.454;2023-07-13T07:04:03;19.10;69.70
78733;DHT22;68056;52.530;5.454;2023-07-13T07:06:29;19.10;69.60
78733;DHT22;68056;52.530;5.454;2023-07-13T07:08:55;19.10;69.50
78733;DHT22;68056;52.530;5.454;2023-07-13T07:11:24;19.20;69.50
78733;DHT22;68056;52.530;5.454;2023-07-13T07:13:51;19.50;69.30
78733;DHT22;68056;52.530;5.454;2023-07-13T07:16:17;19.70;68.80
78733;DHT22;68056;52.530;5.454;2023-07-13T07:18:44;19.90;68.60
78733;DHT22;68056;52.530;5.454;2023-07-13T07:21:10;20.00;68.20
78733;DHT22;68056;52.530;5.454;2023-07-13T07:23:36;19.90;68.20
78733;DHT22;68056;52.530;5.454;2023-07-13T07:26:01;19.90;68.10
78733;DHT22;68056;52.530;5.454;2023-07-13T07:28:27;19.80;68.10
78733;DHT22;68056;52.530;5.454;2023-07-13T07:30:57;19.90;67.60
78733;DHT22;68056;52.530;5.454;2023-07-13T07:33:24;20.30;67.20
78733;DHT22;68056;52.530;5.454;2023-07-13T07:35:51;20.70;66.70
78733;DHT22;68056;52.530;5.454;2023-07-13T07:38:16;21.10;66.10
78733;DHT22;68056;52.530;5.454;2023-07-13T07:40:42;21.40;65.50
78733;DHT22;68056;52.530;5.454;2023-07-13T07:43:10;21.70;64.90
78733;DHT22;68056;52.530;5.454;2023-07-13T07:45:36;21.90;64.20
78733;DHT22;68056;52.530;5.454;2023-07-13T07:48:04;22.10;63.40
78733;DHT22;68056;52.530;5.454;2023-07-13T07:50:30;22.00;63.10
78733;DHT22;68056;52.530;5.454;2023-07-13T07:52:56;21.70;63.30
78733;DHT22;68056;52.530;5.454;2023-07-13T07:55:22;21.30;63.60
78733;DHT22;68056;52.530;5.454;2023-07-13T07:57:48;20.90;64.20
78733;DHT22;68056;52.530;5.454;2023-07-13T08:00:15;20.60;64.60
78733;DHT22;68056;52.530;5.454;2023-07-13T08:02:41;20.40;64.70
78733;DHT22;68056;52.530;5.454;2023-07-13T08:05:08;20.30;64.70
78733;DHT22;68056;52.530;5.454;2023-07-13T08:07:35;20.10;64.80
78733;DHT22;68056;52.530;5.454;2023-07-13T08:10:00;20.00;65.00
78733;DHT22;68056;52.530;5.454;2023-07-13T08:12:26;20.00;64.40
78733;DHT22;68056;52.530;5.454;2023-07-13T08:14:52;20.10;64.50
78733;DHT22;68056;52.530;5.454;2023-07-13T08:17:24;20.40;64.20
78733;DHT22;68056;52.530;5.454;2023-07-13T08:19:50;20.90;63.90
78733;DHT22;68056;52.530;5.454;2023-07-13T08:22:16;21.40;63.30
78733;DHT22;68056;52.530;5.454;2023-07-13T08:24:41;21.70;62.70
78733;DHT22;68056;52.530;5.454;2023-07-13T08:27:11;21.90;62.50
78733;DHT22;68056;52.530;5.454;2023-07-13T08:29:39;22.30;62.30
78733;DHT22;68056;52.530;5.454;2023-07-13T08:32:06;22.70;61.90
78733;DHT22;68056;52.530;5.454;2023-07-13T08:34:35;22.90;61.20
78733;DHT22;68056;52.530;5.454;2023-07-13T08:37:01;23.20;60.30
78733;DHT22;68056;52.530;5.454;2023-07-13T08:39:29;23.30;60.10
78733;DHT22;68056;52.530;5.454;2023-07-13T08:42:01;23.50;59.40
78733;DHT22;68056;52.530;5.454;2023-07-13T08:47:02;23.70;58.30
78733;DHT22;68056;52.530;5.454;2023-07-13T08:49:28;23.80;58.00
78733;DHT22;68056;52.530;5.454;2023-07-13T08:52:02;23.90;57.70
78733;DHT22;68056;52.530;5.454;2023-07-13T08:56:59;24.30;57.10
78733;DHT22;68056;52.530;5.454;2023-07-13T08:59:28;24.20;56.80
78733;DHT22;68056;52.530;5.454;2023-07-13T09:05:08;23.50;57.10
78733;DHT22;68056;52.530;5.454;2023-07-13T09:10:46;23.60;57.60
78733;DHT22;68056;52.530;5.454;2023-07-13T09:15:47;24.20;56.20
78733;DHT22;68056;52.530;5.454;2023-07-13T09:21:17;24.70;55.50
78733;DHT22;68056;52.530;5.454;2023-07-13T09:23:44;24.80;55.30
78733;DHT22;68056;52.530;5.454;2023-07-13T09:26:20;25.00;55.00
78733;DHT22;68056;52.530;5.454;2023-07-13T09:29:11;25.10;54.60
78733;DHT22;68056;52.530;5.454;2023-07-13T09:31:47;25.40;54.40
78733;DHT22;68056;52.530;5.454;2023-07-13T09:34:14;25.40;54.20
78733;DHT22;68056;52.530;5.454;2023-07-13T09:36:40;25.30;54.70
78733;DHT22;68056;52.530;5.454;2023-07-13T09:39:20;25.20;54.70
78733;DHT22;68056;52.530;5.454;2023-07-13T09:44:44;25.00;54.30
78733;DHT22;68056;52.530;5.454;2023-07-13T09:49:54;25.10;54.00
78733;DHT22;68056;52.530;5.454;2023-07-13T09:52:21;25.30;54.10
78733;DHT22;68056;52.530;5.454;2023-07-13T09:54:49;25.60;53.70
78733;DHT22;68056;52.530;5.454;2023-07-13T09:57:22;25.60;53.70
78733;DHT22;68056;52.530;5.454;2023-07-13T09:59:52;25.40;53.40
78733;DHT22;68056;52.530;5.454;2023-07-13T10:02:32;25.20;53.60
78733;DHT22;68056;52.530;5.454;2023-07-13T10:05:05;25.00;53.50
78733;DHT22;68056;52.530;5.454;2023-07-13T10:07:38;24.80;53.90
78733;DHT22;68056;52.530;5.454;2023-07-13T10:10:22;24.60;54.00
78733;DHT22;68056;52.530;5.454;2023-07-13T10:12:48;24.60;54.50
78733;DHT22;68056;52.530;5.454;2023-07-13T10:15:22;24.60;54.20
78733;DHT22;68056;52.530;5.454;2023-07-13T10:17:50;24.80;53.80
78733;DHT22;68056;52.530;5.454;2023-07-13T10:20:16;25.20;53.40
78733;DHT22;68056;52.530;5.454;2023-07-13T10:23:02;25.20;53.10
78733;DHT22;68056;52.530;5.454;2023-07-13T10:25:36;25.30;53.50
78733;DHT22;68056;52.530;5.454;2023-07-13T10:30:43;25.70;52.80
78733;DHT22;68056;52.530;5.454;2023-07-13T10:33:12;25.90;52.60
78733;DHT22;68056;52.530;5.454;2023-07-13T10:35:41;26.10;52.10
78733;DHT22;68056;52.530;5.454;2023-07-13T10:38:12;26.20;51.80
78733;DHT22;68056;52.530;5.454;2023-07-13T10:40:40;26.20;51.10
78733;DHT22;68056;52.530;5.454;2023-07-13T10:43:37;26.10;51.50
78733;DHT22;68056;52.530;5.454;2023-07-13T10:46:05;26.30;51.40
78733;DHT22;68056;52.530;5.454;2023-07-13T10:48:33;26.40;51.00
78733;DHT22;68056;52.530;5.454;2023-07-13T10:51:00;26.40;50.70
78733;DHT22;68056;52.530;5.454;2023-07-13T10:53:30;26.50;50.60
78733;DHT22;68056;52.530;5.454;2023-07-13T10:56:05;26.50;50.30
78733;DHT22;68056;52.530;5.454;2023-07-13T10:58:39;26.50;50.50
78733;DHT22;68056;52.530;5.454;2023-07-13T11:03:33;26.70;50.30
78733;DHT22;68056;52.530;5.454;2023-07-13T11:13:59;26.80;50.00
78733;DHT22;68056;52.530;5.454;2023-07-13T11:16:45;26.80;50.00
78733;DHT22;68056;52.530;5.454;2023-07-13T11:22:09;26.90;50.20
78733;DHT22;68056;52.530;5.454;2023-07-13T11:24:59;26.90;49.70
78733;DHT22;68056;52.530;5.454;2023-07-13T11:27:42;26.60;49.30
78733;DHT22;68056;52.530;5.454;2023-07-13T11:35:37;25.90;50.20
78733;DHT22;68056;52.530;5.454;2023-07-13T11:38:14;25.80;51.10
78733;DHT22;68056;52.530;5.454;2023-07-13T11:40:43;25.80;50.90
78733;DHT22;68056;52.530;5.454;2023-07-13T11:43:13;25.80;50.70
78733;DHT22;68056;52.530;5.454;2023-07-13T11:45:39;25.80;50.50
78733;DHT22;68056;52.530;5.454;2023-07-13T11:48:25;25.80;50.90
78733;DHT22;68056;52.530;5.454;2023-07-13T11:51:03;26.00;50.60
78733;DHT22;68056;52.530;5.454;2023-07-13T11:53:38;26.10;49.60
78733;DHT22;68056;52.530;5.454;2023-07-13T11:56:05;26.00;49.70
78733;DHT22;68056;52.530;5.454;2023-07-13T11:58:32;25.80;49.70
78733;DHT22;68056;52.530;5.454;2023-07-13T12:00:59;25.80;49.80
78733;DHT22;68056;52.530;5.454;2023-07-13T12:03:27;25.80;50.50
78733;DHT22;68056;52.530;5.454;2023-07-13T12:06:03;25.80;50.10
78733;DHT22;68056;52.530;5.454;2023-07-13T12:08:31;25.80;50.20
78733;DHT22;68056;52.530;5.454;2023-07-13T12:11:02;25.80;50.10
78733;DHT22;68056;52.530;5.454;2023-07-13T12:13:35;25.90;50.10
78733;DHT22;68056;52.530;5.454;2023-07-13T12:16:12;26.00;50.50
78733;DHT22;68056;52.530;5.454;2023-07-13T12:18:43;26.10;50.10
78733;DHT22;68056;52.530;5.454;2023-07-13T12:21:13;26.30;49.80
78733;DHT22;68056;52.530;5.454;2023-07-13T12:23:43;26.40;50.00
78733;DHT22;68056;52.530;5.454;2023-07-13T12:26:10;26.40;49.30
78733;DHT22;68056;52.530;5.454;2023-07-13T12:28:43;26.20;49.80
78733;DHT22;68056;52.530;5.454;2023-07-13T12:31:45;26.40;50.20
78733;DHT22;68056;52.530;5.454;2023-07-13T12:34:14;26.40;50.00
78733;DHT22;68056;52.530;5.454;2023-07-13T12:37:01;26.40;50.10
78733;DHT22;68056;52.530;5.454;2023-07-13T12:39:44;26.70;50.40
78733;DHT22;68056;52.530;5.454;2023-07-13T12:42:20;26.90;50.00
78733;DHT22;68056;52.530;5.454;2023-07-13T12:44:47;27.00;49.30
78733;DHT22;68056;52.530;5.454;2023-07-13T12:47:14;26.90;49.50
78733;DHT22;68056;52.530;5.454;2023-07-13T12:49:48;26.90;49.90
78733;DHT22;68056;52.530;5.454;2023-07-13T12:52:20;27.00;49.80
78733;DHT22;68056;52.530;5.454;2023-07-13T12:54:58;26.90;49.20
78733;DHT22;68056;52.530;5.454;2023-07-13T12:57:25;26.80;49.50
78733;DHT22;68056;52.530;5.454;2023-07-13T12:59:56;26.70;49.10
78733;DHT22;68056;52.530;5.454;2023-07-13T13:02:33;26.70;49.40
78733;DHT22;68056;52.530;5.454;2023-07-13T13:05:01;26.80;49.50
78733;DHT22;68056;52.530;5.454;2023-07-13T13:07:29;26.90;49.60
78733;DHT22;68056;52.530;5.454;2023-07-13T13:09:55;26.80;49.60
78733;DHT22;68056;52.530;5.454;2023-07-13T13:12:22;26.90;49.90
78733;DHT22;68056;52.530;5.454;2023-07-13T13:14:51;27.00;50.00
78733;DHT22;68056;52.530;5.454;2023-07-13T13:17:23;27.10;49.40
78733;DHT22;68056;52.530;5.454;2023-07-13T13:19:50;27.10;49.40
78733;DHT22;68056;52.530;5.454;2023-07-13T13:22:20;27.20;49.30
78733;DHT22;68056;52.530;5.454;2023-07-13T13:24:46;27.30;49.30
78733;DHT22;68056;52.530;5.454;2023-07-13T13:27:21;27.60;49.20
78733;DHT22;68056;52.530;5.454;2023-07-13T13:29:49;27.60;48.80
78733;DHT22;68056;52.530;5.454;2023-07-13T13:32:17;27.50;49.10
78733;DHT22;68056;52.530;5.454;2023-07-13T13:34:44;27.30;49.20
78733;DHT22;68056;52.530;5.454;2023-07-13T13:37:23;27.30;49.60
78733;DHT22;68056;52.530;5.454;2023-07-13T13:39:51;27.40;49.70
78733;DHT22;68056;52.530;5.454;2023-07-13T13:42:19;27.50;49.60
78733;DHT22;68056;52.530;5.454;2023-07-13T13:44:47;27.60;49.40
78733;DHT22;68056;52.530;5.454;2023-07-13T13:47:39;27.50;49.10
78733;DHT22;68056;52.530;5.454;2023-07-13T13:50:13;27.40;49.50
78733;DHT22;68056;52.530;5.454;2023-07-13T13:52:40;27.40;49.60
78733;DHT22;68056;52.530;5.454;2023-07-13T13:55:18;27.30;49.80
78733;DHT22;68056;52.530;5.454;2023-07-13T13:57:47;27.10;50.20
78733;DHT22;68056;52.530;5.454;2023-07-13T14:00:15;27.10;50.20
78733;DHT22;68056;52.530;5.454;2023-07-13T14:02:45;27.10;50.30
78733;DHT22;68056;52.530;5.454;2023-07-13T14:05:20;27.10;50.40
78733;DHT22;68056;52.530;5.454;2023-07-13T14:07:46;27.30;50.30
78733;DHT22;68056;52.530;5.454;2023-07-13T14:10:15;27.30;49.60
78733;DHT22;68056;52.530;5.454;2023-07-13T14:12:49;27.10;49.60
78733;DHT22;68056;52.530;5.454;2023-07-13T14:15:29;27.00;50.00
78733;DHT22;68056;52.530;5.454;2023-07-13T14:17:56;27.00;49.70
78733;DHT22;68056;52.530;5.454;2023-07-13T14:20:24;26.80;49.70
78733;DHT22;68056;52.530;5.454;2023-07-13T14:22:51;26.80;49.90
78733;DHT22;68056;52.530;5.454;2023-07-13T14:25:19;26.90;49.90
78733;DHT22;68056;52.530;5.454;2023-07-13T14:27:49;27.00;50.00
78733;DHT22;68056;52.530;5.454;2023-07-13T14:30:18;27.00;49.70
78733;DHT22;68056;52.530;5.454;2023-07-13T14:32:44;27.10;49.80
78733;DHT22;68056;52.530;5.454;2023-07-13T14:35:12;27.10;49.50
78733;DHT22;68056;52.530;5.454;2023-07-13T14:37:40;27.00;49.00
78733;DHT22;68056;52.530;5.454;2023-07-13T14:40:18;26.80;49.30
78733;DHT22;68056;52.530;5.454;2023-07-13T14:42:44;26.80;49.80
78733;DHT22;68056;52.530;5.454;2023-07-13T14:45:19;26.80;49.70
78733;DHT22;68056;52.530;5.454;2023-07-13T14:47:45;26.80;49.70
78733;DHT22;68056;52.530;5.454;2023-07-13T14:50:20;26.70;50.00
78733;DHT22;68056;52.530;5.454;2023-07-13T14:52:47;26.70;50.10
78733;DHT22;68056;52.530;5.454;2023-07-13T14:55:13;26.60;50.20
78733;DHT22;68056;52.530;5.454;2023-07-13T14:57:42;26.60;50.40
78733;DHT22;68056;52.530;5.454;2023-07-13T15:00:16;26.80;50.40
78733;DHT22;68056;52.530;5.454;2023-07-13T15:02:53;26.80;50.20
78733;DHT22;68056;52.530;5.454;2023-07-13T15:05:22;26.70;50.40
78733;DHT22;68056;52.530;5.454;2023-07-13T15:07:50;26.70;50.50
78733;DHT22;68056;52.530;5.454;2023-07-13T15:10:18;26.60;50.60
78733;DHT22;68056;52.530;5.454;2023-07-13T15:12:44;26.40;50.40
78733;DHT22;68056;52.530;5.454;2023-07-13T15:15:10;26.10;50.50
78733;DHT22;68056;52.530;5.454;2023-07-13T15:17:39;25.90;50.70
78733;DHT22;68056;52.530;5.454;2023-07-13T15:20:15;25.80;51.00
78733;DHT22;68056;52.530;5.454;2023-07-13T15:22:42;25.80;51.20
78733;DHT22;68056;52.530;5.454;2023-07-13T15:25:23;25.70;51.40
78733;DHT22;68056;52.530;5.454;2023-07-13T15:27:50;25.60;51.20
78733;DHT22;68056;52.530;5.454;2023-07-13T15:30:16;25.50;51.00
78733;DHT22;68056;52.530;5.454;2023-07-13T15:32:43;25.40;51.20
78733;DHT22;68056;52.530;5.454;2023-07-13T15:35:25;25.00;51.50
78733;DHT22;68056;52.530;5.454;2023-07-13T15:37:51;25.00;51.40
78733;DHT22;68056;52.530;5.454;2023-07-13T15:40:17;25.00;51.40
78733;DHT22;68056;52.530;5.454;2023-07-13T15:42:45;25.00;51.20
78733;DHT22;68056;52.530;5.454;2023-07-13T15:45:22;24.90;51.20
78733;DHT22;68056;52.530;5.454;2023-07-13T15:47:50;24.90;51.50
78733;DHT22;68056;52.530;5.454;2023-07-13T15:50:24;24.90;51.50
78733;DHT22;68056;52.530;5.454;2023-07-13T15:52:53;24.80;51.60
78733;DHT22;68056;52.530;5.454;2023-07-13T15:55:19;24.70;51.70
78733;DHT22;68056;52.530;5.454;2023-07-13T15:57:51;24.60;52.00
78733;DHT22;68056;52.530;5.454;2023-07-13T16:00:25;24.50;52.00
78733;DHT22;68056;52.530;5.454;2023-07-13T16:02:52;24.30;52.10
78733;DHT22;68056;52.530;5.454;2023-07-13T16:05:19;24.20;52.20
78733;DHT22;68056;52.530;5.454;2023-07-13T16:07:46;24.20;52.20
78733;DHT22;68056;52.530;5.454;2023-07-13T16:10:17;24.20;52.10
78733;DHT22;68056;52.530;5.454;2023-07-13T16:12:52;24.00;52.20
78733;DHT22;68056;52.530;5.454;2023-07-13T16:15:19;23.80;52.70
78733;DHT22;68056;52.530;5.454;2023-07-13T16:17:47;23.80;52.90
78733;DHT22;68056;52.530;5.454;2023-07-13T16:20:13;23.60;53.00
78733;DHT22;68056;52.530;5.454;2023-07-13T16:22:40;23.50;53.20
78733;DHT22;68056;52.530;5.454;2023-07-13T16:25:33;23.40;53.20